Time;durP1;ratioP1;P1;durP2;ratioP2;P2;SDS_P1;SDS_P2;PMS_P1;PMS_P2;Temp;Humidity;BMP_temperature;BMP_pressure;BME280_temperature;BME280_humidity;BME280_pressure;Samples;Min_cycle;Max_cycle;Signal;HPM_P1;HPM_P2
2021/04/22 00:00:13;;;;;;;8.10;2.40;;;;;;;19.10;54.31;101933.53;489283;28;1226;-65
2021/04/22 00:00:28;;;;;;;7.97;2.20;;;;;;;19.07;54.57;101931.16;489839;28;18911;-65
2021/04/22 00:00:42;;;;;;;8.57;2.30;;;;;;;19.02;55.33;101931.69;491245;28;961;-65
2021/04/22 00:00:56;;;;;;;7.87;2.30;;;;;;;18.97;55.86;101939.47;491090;28;1925;-65
2021/04/22 00:01:11;;;;;;;7.27;2.20;;;;;;;18.93;55.59;101937.22;491113;28;836;-65
2021/04/22 00:01:26;;;;;;;7.20;2.20;;;;;;;18.91;55.13;101942.81;491417;28;819;-65
2021/04/22 00:01:41;;;;;;;7.00;2.20;;;;;;;18.88;55.31;101937.72;491275;28;1023;-65
2021/04/22 00:01:55;;;;;;;5.80;2.10;;;;;;;18.86;55.27;101944.31;491329;28;925;-64
2021/04/22 00:02:11;;;;;;;5.53;2.00;;;;;;;18.85;55.46;101938.03;489344;28;921;-65
2021/04/22 00:02:25;;;;;;;6.47;2.00;;;;;;;18.82;54.81;101932.97;489543;28;1040;-65
2021/04/22 00:02:40;;;;;;;8.13;2.10;;;;;;;18.90;54.33;101940.28;489416;28;876;-65
2021/04/22 00:02:54;;;;;;;9.45;2.45;;;;;;;18.97;53.24;101923.19;489215;28;1263;-65
2021/04/22 00:03:09;;;;;;;12.70;2.40;;;;;;;19.22;52.84;101936.81;489490;28;800;-65
2021/04/22 00:03:23;;;;;;;14.30;2.50;;;;;;;19.32;52.70;101941.06;489447;28;877;-65
2021/04/22 00:03:37;;;;;;;11.33;2.50;;;;;;;19.37;52.17;101932.41;488766;28;925;-65
2021/04/22 00:03:52;;;;;;;11.85;2.33;;;;;;;19.44;52.14;101936.16;489508;28;885;-65
2021/04/22 00:04:06;;;;;;;12.03;2.20;;;;;;;19.48;51.90;101940.25;489550;28;945;-65
2021/04/22 00:04:21;;;;;;;8.52;2.13;;;;;;;19.51;51.61;101938.06;489492;28;969;-65
2021/04/22 00:04:35;;;;;;;8.23;2.20;;;;;;;19.57;51.58;101935.69;489359;28;969;-65
2021/04/22 00:04:50;;;;;;;8.98;2.20;;;;;;;19.62;51.67;101938.75;489489;28;1106;-65
2021/04/22 00:05:22;;;;;;;8.10;2.17;;;;;;;19.67;51.37;101937.22;489377;28;893;-65
2021/04/22 00:05:39;;;;;;;8.25;2.33;;;;;;;19.71;51.24;101941.28;487076;28;66572;-65
2021/04/22 00:05:54;;;;;;;9.77;2.33;;;;;;;19.72;50.79;101933.97;489440;28;1021;-65
2021/04/22 00:06:08;;;;;;;7.00;2.00;;;;;;;19.76;51.07;101935.34;489218;28;870;-65
2021/04/22 00:06:22;;;;;;;5.00;1.90;;;;;;;19.77;50.91;101942.47;489494;28;861;-65
2021/04/22 00:06:37;;;;;;;5.33;1.90;;;;;;;19.78;50.90;101936.88;489478;28;1002;-65
2021/04/22 00:06:53;;;;;;;7.13;2.00;;;;;;;19.80;50.78;101943.00;489543;28;905;-65
2021/04/22 00:07:07;;;;;;;7.80;2.17;;;;;;;19.81;50.86;101938.41;487519;28;1058;-65
2021/04/22 00:07:21;;;;;;;6.82;2.20;;;;;;;19.83;50.87;101934.50;487621;28;855;-65
2021/04/22 00:07:36;;;;;;;5.73;1.93;;;;;;;19.83;50.73;101931.78;487558;28;910;-65
2021/04/22 00:07:51;;;;;;;6.13;1.90;;;;;;;19.84;50.80;101938.06;487575;28;909;-65
2021/04/22 00:08:08;;;;;;;6.00;2.05;;;;;;;19.85;50.82;101934.34;487595;28;905;-65
2021/04/22 00:08:23;;;;;;;6.03;2.00;;;;;;;19.83;50.84;101934.50;487566;28;1234;-65
2021/04/22 00:08:37;;;;;;;7.33;2.03;;;;;;;19.87;50.82;101939.59;487609;28;1037;-65
2021/04/22 00:08:52;;;;;;;6.45;2.00;;;;;;;19.85;50.86;101937.06;487353;28;874;-65
2021/04/22 00:09:10;;;;;;;4.78;1.80;;;;;;;19.85;50.76;101937.91;487502;28;917;-64
2021/04/22 00:09:24;;;;;;;5.18;2.10;;;;;;;19.87;50.85;101940.47;487039;28;19245;-64
2021/04/22 00:09:39;;;;;;;6.17;2.20;;;;;;;19.88;50.86;101941.31;487530;28;981;-64
2021/04/22 00:09:53;;;;;;;6.93;2.00;;;;;;;19.89;50.90;101941.13;487555;28;982;-64
2021/04/22 00:10:15;;;;;;;6.85;1.95;;;;;;;19.89;50.92;101945.72;487559;28;883;-64
2021/04/22 00:10:41;;;;;;;6.43;2.17;;;;;;;19.89;50.84;101943.84;485308;28;65332;-64
2021/04/22 00:10:57;;;;;;;7.07;2.03;;;;;;;19.88;50.86;101942.16;484752;28;65400;-64
2021/04/22 00:11:11;;;;;;;7.32;2.10;;;;;;;19.90;51.03;101940.13;489115;28;890;-64
2021/04/22 00:11:25;;;;;;;7.57;1.97;;;;;;;19.89;50.96;101943.84;489478;28;902;-65
2021/04/22 00:11:40;;;;;;;7.10;1.97;;;;;;;19.90;51.01;101945.56;489510;28;1049;-65
2021/04/22 00:11:54;;;;;;;6.10;2.08;;;;;;;19.90;50.93;101940.13;489292;28;921;-65
2021/04/22 00:12:09;;;;;;;7.40;2.10;;;;;;;19.90;50.95;101944.69;489431;28;952;-65
2021/04/22 00:12:23;;;;;;;7.95;2.15;;;;;;;19.90;51.08;101945.56;489276;28;1267;-65
2021/04/22 00:12:38;;;;;;;7.25;2.10;;;;;;;19.91;51.01;101944.53;489328;28;785;-65
2021/04/22 00:12:53;;;;;;;8.02;2.10;;;;;;;19.90;51.12;101942.84;489274;28;911;-65
2021/04/22 00:13:08;;;;;;;7.17;2.00;;;;;;;19.92;51.00;101945.38;489503;28;784;-65
2021/04/22 00:13:27;;;;;;;5.10;1.90;;;;;;;19.92;51.04;101950.81;489541;28;1156;-65
2021/04/22 00:13:41;;;;;;;6.03;1.90;;;;;;;19.90;50.92;101948.28;487961;28;42652;-65
2021/04/22 00:13:56;;;;;;;6.13;2.00;;;;;;;19.92;51.04;101942.66;489429;28;885;-65
2021/04/22 00:14:12;;;;;;;6.10;2.10;;;;;;;19.91;51.04;101947.25;489555;28;1056;-65
2021/04/22 00:14:26;;;;;;;7.05;2.10;;;;;;;19.91;51.52;101944.53;489275;28;1033;-65
2021/04/22 00:14:41;;;;;;;6.75;1.95;;;;;;;19.93;51.17;101958.78;489475;28;837;-64
2021/04/22 00:14:55;;;;;;;7.47;1.93;;;;;;;19.92;51.04;101951.63;489392;28;937;-64
2021/04/22 00:15:15;;;;;;;6.85;2.00;;;;;;;19.93;51.40;101950.63;489302;28;949;-64
2021/04/22 00:15:30;;;;;;;6.18;2.00;;;;;;;19.93;51.21;101953.34;487219;28;65470;-64
2021/04/22 00:15:45;;;;;;;6.93;2.03;;;;;;;19.92;51.27;101948.09;489522;28;810;-64
2021/04/22 00:16:01;;;;;;;7.70;2.10;;;;;;;19.93;51.29;101947.91;489142;28;882;-64
2021/04/22 00:16:15;;;;;;;6.25;2.03;;;;;;;19.93;51.38;101956.06;489479;28;973;-64
2021/04/22 00:16:30;;;;;;;5.25;1.80;;;;;;;19.93;51.35;101950.63;489460;28;865;-64
2021/04/22 00:16:44;;;;;;;5.70;1.70;;;;;;;19.92;51.32;101948.91;489352;28;1142;-64
2021/04/22 00:16:59;;;;;;;5.45;1.90;;;;;;;19.92;51.22;101950.81;489248;28;1029;-64
2021/04/22 00:17:13;;;;;;;5.87;1.90;;;;;;;19.93;51.21;101947.06;489588;28;811;-64
2021/04/22 00:17:27;;;;;;;6.32;2.00;;;;;;;19.94;51.35;101952.31;489487;28;870;-64
2021/04/22 00:17:44;;;;;;;5.63;2.10;;;;;;;19.94;51.46;101949.59;489304;28;806;-64
2021/04/22 00:17:59;;;;;;;5.18;2.00;;;;;;;19.94;51.48;101952.31;489406;28;865;-64
2021/04/22 00:18:14;;;;;;;6.95;2.20;;;;;;;19.94;51.31;101949.59;489366;28;1036;-64
2021/04/22 00:18:29;;;;;;;7.97;2.25;;;;;;;19.95;51.47;101951.31;489034;28;816;-64
2021/04/22 00:18:43;;;;;;;6.07;1.90;;;;;;;19.95;51.48;101955.88;489387;28;1078;-64
2021/04/22 00:18:58;;;;;;;5.47;1.87;;;;;;;19.95;51.51;101962.16;489260;28;814;-64
2021/04/22 00:19:13;;;;;;;6.55;2.00;;;;;;;19.97;51.48;101953.84;489275;28;909;-64
2021/04/22 00:19:27;;;;;;;6.00;1.92;;;;;;;19.97;51.60;101953.84;489521;28;914;-64
2021/04/22 00:19:42;;;;;;;6.47;1.90;;;;;;;19.98;51.61;101956.41;489462;28;976;-64
2021/04/22 00:19:56;;;;;;;7.60;2.20;;;;;;;19.98;51.46;101948.25;489377;28;1179;-64
2021/04/22 00:20:13;;;;;;;7.20;2.17;;;;;;;20.00;51.46;101956.22;489326;28;888;-64
2021/04/22 00:20:27;;;;;;;6.72;1.90;;;;;;;20.00;51.54;101954.34;489513;28;901;-64
2021/04/22 00:20:42;;;;;;;6.17;1.90;;;;;;;20.00;51.48;101951.63;489411;28;857;-64
2021/04/22 00:20:57;;;;;;;5.43;2.00;;;;;;;20.01;51.54;101957.94;489021;28;1967;-64
2021/04/22 00:21:11;;;;;;;5.85;2.03;;;;;;;20.00;51.49;101953.50;489491;28;999;-64
2021/04/22 00:21:26;;;;;;;6.97;2.10;;;;;;;20.00;51.53;101951.63;489588;28;977;-65
2021/04/22 00:21:40;;;;;;;5.90;2.00;;;;;;;20.00;51.53;101953.50;489214;28;1009;-64
2021/04/22 00:21:55;;;;;;;6.00;1.83;;;;;;;19.99;51.50;101952.66;489451;28;799;-64
2021/04/22 00:22:09;;;;;;;6.63;1.90;;;;;;;20.01;51.48;101957.94;489380;28;1191;-64
2021/04/22 00:22:23;;;;;;;7.57;2.03;;;;;;;20.00;51.62;101957.06;489566;28;890;-64
2021/04/22 00:22:38;;;;;;;7.60;2.10;;;;;;;20.00;51.61;101957.06;489278;28;907;-64
2021/04/22 00:22:53;;;;;;;7.45;2.10;;;;;;;20.01;51.54;101957.94;489389;28;1607;-64
2021/04/22 00:23:09;;;;;;;7.57;1.92;;;;;;;20.00;51.54;101951.63;489422;28;946;-64
2021/04/22 00:23:24;;;;;;;5.78;1.77;;;;;;;20.01;51.60;101960.66;489110;28;1151;-64
2021/04/22 00:23:38;;;;;;;5.55;1.88;;;;;;;20.02;51.61;101959.63;489377;28;940;-64
2021/04/22 00:23:53;;;;;;;6.87;2.00;;;;;;;20.00;51.55;101956.22;489317;28;984;-64
2021/04/22 00:24:07;;;;;;;6.85;2.00;;;;;;;20.02;51.66;101956.91;489047;28;839;-64
2021/04/22 00:24:22;;;;;;;5.93;1.92;;;;;;;20.02;51.52;101956.91;489289;28;936;-64
2021/04/22 00:24:36;;;;;;;5.77;1.93;;;;;;;20.00;51.58;101954.34;489339;28;902;-64
2021/04/22 00:24:50;;;;;;;6.33;2.00;;;;;;;20.01;51.79;101952.50;489355;28;831;-64
2021/04/22 00:25:06;;;;;;;7.72;2.03;;;;;;;20.02;51.52;101955.03;488970;28;826;-64
2021/04/22 00:25:20;;;;;;;6.90;2.00;;;;;;;20.03;51.46;101953.16;489453;28;1057;-64
2021/04/22 00:25:35;;;;;;;6.03;2.00;;;;;;;20.03;51.57;101954.03;489492;28;823;-64
2021/04/22 00:25:50;;;;;;;6.28;2.00;;;;;;;20.04;51.56;101949.44;488825;28;977;-64
2021/04/22 00:26:05;;;;;;;5.47;1.90;;;;;;;20.02;51.67;101954.19;489355;28;862;-64
2021/04/22 00:26:19;;;;;;;5.83;2.00;;;;;;;20.03;51.63;101958.59;489412;28;855;-64
2021/04/22 00:26:34;;;;;;;5.57;1.85;;;;;;;20.02;51.55;101960.47;489463;28;1044;-64
2021/04/22 00:26:48;;;;;;;5.20;1.87;;;;;;;20.03;51.58;101958.59;489391;28;898;-64
2021/04/22 00:27:03;;;;;;;6.30;2.10;;;;;;;20.03;51.57;101950.44;489379;28;941;-64
2021/04/22 00:27:17;;;;;;;6.43;2.00;;;;;;;20.03;51.52;101953.16;489504;28;806;-64
2021/04/22 00:27:31;;;;;;;5.47;2.00;;;;;;;20.03;51.70;101950.44;489272;28;933;-64
2021/04/22 00:27:46;;;;;;;5.00;1.90;;;;;;;20.03;51.29;101953.16;489238;28;1250;-64
2021/04/22 00:28:04;;;;;;;5.57;1.87;;;;;;;20.03;51.55;101950.44;489280;28;1188;-64
2021/04/22 00:28:19;;;;;;;6.10;2.00;;;;;;;20.03;51.46;101954.03;487537;28;42957;-64
2021/04/22 00:28:33;;;;;;;5.28;1.90;;;;;;;20.02;51.41;101949.59;489322;28;941;-64
2021/04/22 00:28:48;;;;;;;5.60;2.00;;;;;;;20.04;51.65;101950.28;489326;28;849;-64
2021/04/22 00:29:02;;;;;;;5.90;2.10;;;;;;;20.04;51.59;101952.16;488882;28;847;-65
2021/04/22 00:29:17;;;;;;;5.20;1.83;;;;;;;20.05;51.32;101948.41;489175;28;998;-65
2021/04/22 00:29:31;;;;;;;4.43;1.70;;;;;;;20.04;51.59;101957.59;489326;28;866;-64
2021/04/22 00:29:46;;;;;;;4.23;1.77;;;;;;;20.03;51.35;101956.75;489507;28;792;-64
2021/04/22 00:30:01;;;;;;;5.43;1.90;;;;;;;20.04;51.55;101955.72;489231;28;1000;-64
2021/04/22 00:30:17;;;;;;;5.90;1.90;;;;;;;20.05;51.35;101956.56;489544;28;855;-64
2021/04/22 00:30:33;;;;;;;6.53;1.80;;;;;;;20.05;51.42;101957.41;489400;28;854;-64
2021/04/22 00:30:48;;;;;;;6.55;1.80;;;;;;;20.05;51.42;101948.41;489230;28;942;-65
2021/04/22 00:31:03;;;;;;;4.78;1.83;;;;;;;20.05;51.36;101957.41;489305;28;953;-65
2021/04/22 00:31:17;;;;;;;6.97;2.00;;;;;;;20.06;51.40;101953.69;489435;28;919;-64
2021/04/22 00:31:32;;;;;;;7.67;1.97;;;;;;;20.07;51.46;101951.81;489266;28;845;-64
2021/04/22 00:31:46;;;;;;;5.78;1.77;;;;;;;20.06;51.37;101947.41;489529;28;861;-64
2021/04/22 00:32:00;;;;;;;5.40;1.80;;;;;;;20.05;51.50;101957.41;489491;28;917;-64
2021/04/22 00:32:15;;;;;;;5.10;1.80;;;;;;;20.04;51.52;101950.28;489421;28;961;-64
2021/04/22 00:32:29;;;;;;;4.73;1.83;;;;;;;20.06;51.50;101956.41;489131;28;976;-64
2021/04/22 00:32:44;;;;;;;4.90;1.67;;;;;;;20.05;51.44;101946.53;489506;28;1043;-64
2021/04/22 00:32:59;;;;;;;4.57;1.60;;;;;;;20.06;51.54;101947.41;489368;28;1001;-64
2021/04/22 00:33:16;;;;;;;5.07;1.70;;;;;;;20.05;51.54;101951.13;488685;28;1306;-65
2021/04/22 00:33:30;;;;;;;6.57;1.90;;;;;;;20.05;51.44;101953.84;489462;28;957;-64
2021/04/22 00:33:45;;;;;;;6.15;1.98;;;;;;;20.06;51.58;101952.84;489400;28;814;-65
2021/04/22 00:33:59;;;;;;;6.40;1.80;;;;;;;20.05;51.48;101948.41;489266;28;773;-64
2021/04/22 00:34:14;;;;;;;6.43;1.83;;;;;;;20.05;51.43;101951.97;489163;28;973;-65
2021/04/22 00:34:28;;;;;;;4.70;1.80;;;;;;;20.05;51.39;101946.53;489282;28;977;-65
2021/04/22 00:34:42;;;;;;;3.57;1.70;;;;;;;20.05;51.56;101951.97;489268;28;957;-64
2021/04/22 00:34:57;;;;;;;3.78;1.70;;;;;;;20.06;51.52;101947.41;488998;28;864;-64
2021/04/22 00:35:12;;;;;;;5.05;1.83;;;;;;;20.06;51.42;101944.69;489202;28;911;-64
2021/04/22 00:35:27;;;;;;;5.22;1.85;;;;;;;20.07;51.39;101947.22;489344;28;910;-65
2021/04/22 00:35:42;;;;;;;5.10;1.80;;;;;;;20.07;51.50;101947.22;489014;28;1158;-65
2021/04/22 00:35:56;;;;;;;6.20;1.90;;;;;;;20.08;51.34;101954.38;489339;28;906;-65
2021/04/22 00:36:11;;;;;;;6.63;1.92;;;;;;;20.06;51.02;101937.38;489345;28;1021;-64
2021/04/22 00:36:25;;;;;;;5.53;1.77;;;;;;;20.08;51.26;101946.22;489321;28;959;-64
2021/04/22 00:36:39;;;;;;;4.78;1.80;;;;;;;20.06;51.32;101950.97;489324;28;834;-64
2021/04/22 00:36:54;;;;;;;4.77;1.80;;;;;;;20.06;51.44;101950.97;489394;28;945;-64
2021/04/22 00:37:08;;;;;;;4.77;1.70;;;;;;;20.08;51.49;101940.78;489359;28;846;-64
2021/04/22 00:37:23;;;;;;;5.30;1.70;;;;;;;20.07;51.39;101949.94;489317;28;953;-64
2021/04/22 00:37:38;;;;;;;5.83;1.80;;;;;;;20.09;51.49;101949.78;489421;28;803;-64
2021/04/22 00:37:53;;;;;;;5.30;1.80;;;;;;;20.07;51.44;101946.38;489463;28;957;-64
2021/04/22 00:38:08;;;;;;;5.53;1.70;;;;;;;20.06;51.59;101945.53;489289;28;854;-64
2021/04/22 00:38:22;;;;;;;5.40;1.70;;;;;;;20.07;51.56;101946.38;489417;28;1169;-64
2021/04/22 00:38:36;;;;;;;5.28;1.80;;;;;;;20.07;51.48;101944.50;489397;28;795;-64
2021/04/22 00:38:51;;;;;;;6.13;1.87;;;;;;;20.07;51.38;101946.38;489365;28;962;-65
2021/04/22 00:39:06;;;;;;;6.05;1.90;;;;;;;20.06;51.43;101941.97;489176;28;933;-64
2021/04/22 00:39:20;;;;;;;4.65;1.80;;;;;;;20.09;51.32;101947.06;489322;28;858;-64
2021/04/22 00:39:35;;;;;;;5.07;1.80;;;;;;;20.07;51.43;101947.22;489557;28;949;-64
2021/04/22 00:39:49;;;;;;;5.50;1.88;;;;;;;20.08;51.40;101950.78;489263;28;946;-64
2021/04/22 00:40:10;;;;;;;5.67;1.90;;;;;;;20.07;51.43;101946.38;489449;28;902;-64
2021/04/22 00:40:27;;;;;;;5.07;1.88;;;;;;;20.09;51.41;101941.63;487091;28;66610;-64
2021/04/22 00:40:42;;;;;;;5.63;1.70;;;;;;;20.07;51.36;101947.22;488852;28;897;-64
2021/04/22 00:40:56;;;;;;;5.93;1.55;;;;;;;20.09;51.24;101949.78;489361;28;916;-64
2021/04/22 00:41:11;;;;;;;5.00;1.50;;;;;;;20.08;51.70;101948.06;489383;28;1997;-65
2021/04/22 00:41:25;;;;;;;5.78;1.75;;;;;;;20.08;51.39;101948.94;489012;28;1313;-64
2021/04/22 00:41:39;;;;;;;5.73;1.90;;;;;;;20.09;51.37;101947.91;489302;28;905;-65
2021/04/22 00:41:54;;;;;;;5.75;1.80;;;;;;;20.09;51.39;101942.47;489290;28;1245;-63
2021/04/22 00:42:08;;;;;;;5.33;1.70;;;;;;;20.09;51.34;101938.91;489312;28;866;-63
2021/04/22 00:42:23;;;;;;;4.93;1.57;;;;;;;20.08;51.40;101940.78;489055;28;945;-65
2021/04/22 00:42:37;;;;;;;6.47;1.75;;;;;;;20.09;51.48;101947.06;489239;28;1016;-63
2021/04/22 00:42:52;;;;;;;6.20;1.90;;;;;;;20.07;51.42;101941.78;489243;28;772;-64
2021/04/22 00:43:10;;;;;;;5.38;1.60;;;;;;;20.09;51.45;101947.06;488831;28;855;-64
2021/04/22 00:43:24;;;;;;;5.28;1.60;;;;;;;20.09;51.52;101937.03;488505;28;2192;-64
2021/04/22 00:43:39;;;;;;;4.88;1.73;;;;;;;20.10;51.43;101943.31;489404;28;864;-63
2021/04/22 00:43:54;;;;;;;4.83;1.77;;;;;;;20.10;51.42;101944.16;489325;28;914;-63
2021/04/22 00:44:09;;;;;;;4.22;1.80;;;;;;;20.09;51.13;101938.91;489410;28;969;-65
2021/04/22 00:44:23;;;;;;;4.40;1.85;;;;;;;20.12;51.28;101946.72;489377;28;913;-65
2021/04/22 00:44:38;;;;;;;4.22;1.70;;;;;;;20.10;51.39;101938.72;489306;28;901;-63
2021/04/22 00:44:52;;;;;;;4.07;1.60;;;;;;;20.11;51.44;101945.03;487381;28;875;-63
2021/04/22 00:45:07;;;;;;;3.97;1.60;;;;;;;20.09;51.50;101939.75;487382;28;1001;-63
2021/04/22 00:45:22;;;;;;;3.70;1.70;;;;;;;20.08;51.35;101940.78;487441;28;951;-63
2021/04/22 00:45:42;;;;;;;4.17;1.70;;;;;;;20.09;51.48;101941.63;487626;28;927;-65
2021/04/22 00:45:57;;;;;;;5.13;1.98;;;;;;;20.10;51.31;101946.88;485280;28;66822;-65
2021/04/22 00:46:11;;;;;;;5.95;2.00;;;;;;;20.09;51.50;101947.91;487470;28;942;-63
2021/04/22 00:46:26;;;;;;;5.50;1.90;;;;;;;20.10;51.35;101944.16;487579;28;799;-63
2021/04/22 00:46:40;;;;;;;5.55;2.10;;;;;;;20.09;51.39;101947.06;487449;28;953;-65
2021/04/22 00:46:56;;;;;;;5.40;2.20;;;;;;;20.09;51.32;101944.34;487357;28;1036;-65
2021/04/22 00:47:10;;;;;;;5.15;1.90;;;;;;;20.12;51.26;101946.72;487483;28;819;-65
2021/04/22 00:47:25;;;;;;;4.97;1.88;;;;;;;20.11;51.47;101945.03;487439;28;799;-65
2021/04/22 00:47:40;;;;;;;5.47;1.80;;;;;;;20.11;51.36;101942.28;487508;28;989;-65
2021/04/22 00:47:54;;;;;;;6.13;1.80;;;;;;;20.08;51.51;101938.06;487106;28;1097;-65
2021/04/22 00:48:18;;;;;;;5.27;1.80;;;;;;;20.10;51.44;101940.59;487400;28;902;-64
2021/04/22 00:48:32;;;;;;;6.03;1.80;;;;;;;20.10;51.47;101946.03;485250;28;65511;-64
2021/04/22 00:48:46;;;;;;;5.60;1.60;;;;;;;20.11;51.12;101945.88;487537;28;763;-64
2021/04/22 00:49:01;;;;;;;5.07;1.60;;;;;;;20.12;51.33;101941.28;487385;28;807;-64
2021/04/22 00:49:16;;;;;;;4.60;1.70;;;;;;;20.12;51.42;101935.84;487449;28;892;-64
2021/04/22 00:49:30;;;;;;;5.10;1.73;;;;;;;20.11;51.43;101940.44;487326;28;939;-64
2021/04/22 00:49:45;;;;;;;5.30;1.73;;;;;;;20.11;51.31;101935.00;487540;28;1076;-63
2021/04/22 00:50:00;;;;;;;4.78;1.60;;;;;;;20.12;51.28;101938.56;487472;28;906;-63
2021/04/22 00:50:27;;;;;;;5.20;1.73;;;;;;;20.12;51.42;101941.28;487530;28;815;-64
2021/04/22 00:50:42;;;;;;;6.15;1.90;;;;;;;20.10;51.42;101938.72;485211;28;66579;-63
2021/04/22 00:50:57;;;;;;;6.25;1.80;;;;;;;20.09;51.43;101937.03;487348;28;855;-64
2021/04/22 00:51:12;;;;;;;5.28;1.65;;;;;;;20.09;51.45;101945.19;487347;28;870;-63
2021/04/22 00:51:27;;;;;;;4.75;1.60;;;;;;;20.10;51.39;101938.72;487412;28;1057;-63
2021/04/22 00:51:41;;;;;;;5.25;1.80;;;;;;;20.09;51.47;101937.03;487435;28;930;-63
2021/04/22 00:51:56;;;;;;;5.27;1.80;;;;;;;20.10;51.40;101940.59;487486;28;978;-64
2021/04/22 00:52:12;;;;;;;5.35;1.90;;;;;;;20.09;51.43;101942.47;487498;28;1009;-63
2021/04/22 00:52:26;;;;;;;5.72;2.00;;;;;;;20.09;51.59;101939.75;487453;28;882;-63
2021/04/22 00:52:41;;;;;;;5.60;1.90;;;;;;;20.09;51.41;101941.63;487489;28;901;-65
2021/04/22 00:52:57;;;;;;;4.70;1.70;;;;;;;20.09;51.47;101941.63;487521;28;827;-63
2021/04/22 00:53:12;;;;;;;4.90;1.70;;;;;;;20.11;51.24;101942.28;487368;28;958;-64
2021/04/22 00:53:27;;;;;;;4.77;1.80;;;;;;;20.11;51.48;101943.16;487379;28;1037;-65
2021/04/22 00:53:43;;;;;;;4.38;1.60;;;;;;;20.12;51.51;101944.00;487569;28;980;-63
2021/04/22 00:53:57;;;;;;;4.85;1.63;;;;;;;20.11;51.34;101943.16;487475;28;1108;-65
2021/04/22 00:54:12;;;;;;;4.97;1.90;;;;;;;20.11;51.46;101940.44;487424;28;982;-65
2021/04/22 00:54:26;;;;;;;5.63;1.80;;;;;;;20.10;51.26;101941.44;487343;28;890;-64
2021/04/22 00:54:41;;;;;;;5.43;1.70;;;;;;;20.12;51.39;101941.28;487558;28;1043;-62
2021/04/22 00:54:56;;;;;;;4.97;1.63;;;;;;;20.11;51.39;101937.72;487380;28;881;-65
2021/04/22 00:55:10;;;;;;;5.55;1.70;;;;;;;20.11;51.52;101937.72;487498;28;915;-64
2021/04/22 00:55:26;;;;;;;5.47;1.75;;;;;;;20.13;51.35;101943.81;486878;28;913;-65
2021/04/22 00:55:40;;;;;;;5.22;1.80;;;;;;;20.14;51.38;101942.78;487535;28;851;-65
2021/04/22 00:55:55;;;;;;;5.78;1.90;;;;;;;20.13;51.19;101943.81;487246;28;1375;-65
2021/04/22 00:56:11;;;;;;;7.13;1.90;;;;;;;20.13;51.35;101941.09;487339;28;838;-65
2021/04/22 00:56:25;;;;;;;6.18;1.67;;;;;;;20.11;51.45;101945.88;487253;28;863;-64
2021/04/22 00:56:39;;;;;;;5.15;1.60;;;;;;;20.12;51.50;101939.41;487267;28;1295;-65
2021/04/22 00:56:54;;;;;;;5.77;1.70;;;;;;;20.12;51.41;101941.28;487253;28;795;-65
2021/04/22 00:57:08;;;;;;;5.40;1.83;;;;;;;20.12;51.41;101947.56;487408;28;1029;-65
2021/04/22 00:57:23;;;;;;;6.05;1.90;;;;;;;20.13;51.55;101941.09;487287;28;938;-65
2021/04/22 00:57:37;;;;;;;6.33;1.83;;;;;;;20.14;51.47;101944.66;487241;28;1250;-65
2021/04/22 00:57:51;;;;;;;4.60;1.60;;;;;;;20.12;51.54;101944.00;487496;28;815;-65
2021/04/22 00:58:07;;;;;;;4.60;1.67;;;;;;;20.10;51.52;101946.88;487440;28;1204;-64
2021/04/22 00:58:22;;;;;;;5.70;1.70;;;;;;;20.11;51.47;101942.28;487409;28;885;-64
2021/04/22 00:58:36;;;;;;;5.03;1.60;;;;;;;20.10;51.52;101944.16;487545;28;918;-64
2021/04/22 00:58:51;;;;;;;6.47;1.60;;;;;;;20.12;51.39;101941.28;487481;28;1001;-64
2021/04/22 00:59:05;;;;;;;6.70;1.60;;;;;;;20.12;51.49;101941.28;487516;28;933;-64
2021/04/22 00:59:19;;;;;;;5.13;1.58;;;;;;;20.10;51.56;101944.16;487192;28;919;-64
2021/04/22 00:59:35;;;;;;;4.83;1.70;;;;;;;20.13;51.51;101951.97;487157;28;941;-64
2021/04/22 00:59:49;;;;;;;4.90;1.67;;;;;;;20.11;51.46;101945.03;487252;28;855;-64
2021/04/22 01:00:07;;;;;;;5.40;1.70;;;;;;;20.10;51.60;101946.03;487315;28;989;-64
2021/04/22 01:00:24;;;;;;;5.03;1.65;;;;;;;20.09;51.61;101941.63;486638;28;18854;-64
2021/04/22 01:01:00;;;;;;;4.15;1.60;;;;;;;20.13;51.61;101951.13;487276;28;986;-64
2021/04/22 01:01:15;;;;;;;4.90;1.75;;;;;;;20.12;51.53;101947.56;485134;28;65787;-64
2021/04/22 01:01:29;;;;;;;5.18;1.88;;;;;;;20.11;51.48;101945.88;487313;28;1045;-64
2021/04/22 01:01:44;;;;;;;4.97;1.83;;;;;;;20.10;51.58;101946.03;487198;28;839;-64
2021/04/22 01:01:58;;;;;;;4.90;1.80;;;;;;;20.10;51.65;101949.59;487379;28;839;-63
2021/04/22 01:02:13;;;;;;;5.70;1.80;;;;;;;20.12;51.60;101946.72;487294;28;870;-64
2021/04/22 01:02:28;;;;;;;5.95;2.00;;;;;;;20.12;51.47;101942.13;487323;28;977;-64
2021/04/22 01:02:42;;;;;;;4.90;1.88;;;;;;;20.14;51.51;101950.09;486919;28;1059;-64
2021/04/22 01:02:57;;;;;;;4.33;1.60;;;;;;;20.16;51.57;101951.59;487178;28;866;-64
2021/04/22 01:03:12;;;;;;;5.20;1.60;;;;;;;20.19;51.42;101951.28;487389;28;1045;-64
2021/04/22 01:03:29;;;;;;;5.50;1.70;;;;;;;20.18;51.29;101949.56;487545;28;929;-64
2021/04/22 01:03:43;;;;;;;4.70;1.70;;;;;;;20.19;51.24;101953.13;487489;28;921;-64
2021/04/22 01:03:58;;;;;;;4.55;1.70;;;;;;;20.19;51.40;101944.97;487372;28;942;-64
2021/04/22 01:04:12;;;;;;;4.40;1.60;;;;;;;20.19;51.34;101953.13;487374;28;799;-64
2021/04/22 01:04:27;;;;;;;4.28;1.50;;;;;;;20.18;51.25;101951.44;487352;28;898;-64
2021/04/22 01:04:50;;;;;;;4.73;1.60;;;;;;;20.15;51.27;101949.91;487266;28;834;-64
2021/04/22 01:05:10;;;;;;;4.38;1.50;;;;;;;20.15;51.40;101949.06;484138;28;88831;-64
2021/04/22 01:05:41;;;;;;;4.05;1.50;;;;;;;20.15;51.45;101958.06;485010;28;65780;-64
2021/04/22 01:06:02;;;;;;;4.20;1.70;;;;;;;20.14;51.54;101956.38;485021;28;65019;-64
2021/04/22 01:06:17;;;;;;;4.55;1.60;;;;;;;20.16;51.45;101957.03;485164;28;65364;-64
2021/04/22 01:06:31;;;;;;;4.57;1.60;;;;;;;20.16;51.53;101954.34;487487;28;886;-64
2021/04/22 01:06:46;;;;;;;4.85;1.65;;;;;;;20.15;51.40;101951.78;487488;28;902;-65
2021/04/22 01:07:01;;;;;;;5.33;1.80;;;;;;;20.17;51.31;101952.47;488946;28;1230;-64
2021/04/22 01:07:16;;;;;;;5.18;1.80;;;;;;;20.16;51.44;101957.03;489449;28;977;-63
2021/04/22 01:07:31;;;;;;;4.65;1.65;;;;;;;20.16;51.34;101950.75;489346;28;866;-64
2021/04/22 01:07:45;;;;;;;5.20;1.67;;;;;;;20.17;51.40;101955.19;489200;28;996;-64
2021/04/22 01:08:01;;;;;;;5.18;1.60;;;;;;;20.16;51.36;101957.03;489360;28;854;-64
2021/04/22 01:08:15;;;;;;;4.93;1.65;;;;;;;20.15;51.46;101959.94;489389;28;896;-64
2021/04/22 01:08:30;;;;;;;4.80;1.70;;;;;;;20.13;51.38;101957.41;489096;28;846;-64
2021/04/22 01:08:45;;;;;;;3.55;1.55;;;;;;;20.13;51.43;101954.69;489328;28;1099;-65
2021/04/22 01:09:07;;;;;;;3.60;1.60;;;;;;;20.15;51.41;101958.06;489229;28;836;-64
2021/04/22 01:09:21;;;;;;;3.97;1.50;;;;;;;20.16;51.34;101956.19;486958;28;65464;-65
2021/04/22 01:09:35;;;;;;;3.50;1.57;;;;;;;20.15;51.40;101957.22;489393;28;1036;-65
2021/04/22 01:09:50;;;;;;;4.10;1.60;;;;;;;20.13;51.45;101956.56;489219;28;854;-65
2021/04/22 01:10:05;;;;;;;4.50;1.50;;;;;;;20.14;51.43;101961.81;488904;28;1288;-64
2021/04/22 01:10:20;;;;;;;3.90;1.40;;;;;;;20.13;51.47;101960.13;487224;28;894;-64
2021/04/22 01:10:35;;;;;;;4.47;1.50;;;;;;;20.11;51.44;101950.44;487514;28;858;-64
2021/04/22 01:10:49;;;;;;;5.13;1.70;;;;;;;20.11;51.60;101956.75;487436;28;870;-64
2021/04/22 01:11:06;;;;;;;5.20;1.70;;;;;;;20.12;51.46;101960.31;487468;28;882;-64
2021/04/22 01:11:28;;;;;;;4.47;1.70;;;;;;;20.12;51.33;101955.72;487392;28;877;-64
2021/04/22 01:11:42;;;;;;;5.07;1.80;;;;;;;20.13;51.57;101957.41;485070;28;66771;-64
2021/04/22 01:11:58;;;;;;;6.25;1.90;;;;;;;20.16;51.48;101956.19;489241;28;1001;-63
2021/04/22 01:12:13;;;;;;;6.85;1.92;;;;;;;20.16;51.40;101958.91;489343;28;885;-63
2021/04/22 01:12:27;;;;;;;5.32;1.75;;;;;;;20.16;51.50;101956.19;489157;28;1266;-64
2021/04/22 01:12:42;;;;;;;5.27;1.63;;;;;;;20.15;51.34;101949.91;489153;28;865;-64
2021/04/22 01:12:57;;;;;;;5.93;1.63;;;;;;;20.16;51.31;101956.19;489243;28;1060;-64
2021/04/22 01:13:12;;;;;;;4.65;1.63;;;;;;;20.14;51.48;101953.66;489369;28;1044;-64
2021/04/22 01:13:26;;;;;;;4.60;1.80;;;;;;;20.13;51.42;101954.69;489137;28;928;-64